createdAt,value
2023-03-24T00:01:04.805Z,4.18
2023-03-24T00:04:01.681Z,6.20
2023-03-24T00:06:58.753Z,3.47
2023-03-24T00:09:55.860Z,5.00
2023-03-24T00:12:52.734Z,4.80
2023-03-24T00:15:49.608Z,3.78
2023-03-24T00:18:50.324Z,4.53
2023-03-24T00:21:47.178Z,2.80
2023-03-24T00:24:46.819Z,4.13
2023-03-24T00:27:44.925Z,4.47
2023-03-24T00:30:42.162Z,4.65
2023-03-24T00:33:40.422Z,5.13
2023-03-24T00:36:37.670Z,3.50
2023-03-24T00:39:34.668Z,6.47
2023-03-24T00:42:35.464Z,3.72
2023-03-24T00:48:32.508Z,3.88
2023-03-24T00:51:39.107Z,4.05
2023-03-24T00:54:39.928Z,4.18
2023-03-24T00:57:36.757Z,4.05
2023-03-24T01:00:33.678Z,3.17
2023-03-24T01:03:30.492Z,5.25
2023-03-24T01:06:27.309Z,4.25
2023-03-24T01:09:24.555Z,9.75
2023-03-24T01:12:21.845Z,6.28
2023-03-24T01:15:22.007Z,6.38
2023-03-24T01:18:20.034Z,7.57
2023-03-24T01:21:18.289Z,4.85
2023-03-24T01:24:15.116Z,5.65
2023-03-24T01:27:12.008Z,6.40
2023-03-24T01:30:12.121Z,6.35
2023-03-24T01:33:09.947Z,6.15
2023-03-24T01:36:07.820Z,4.72
2023-03-24T01:39:05.324Z,5.40
2023-03-24T01:42:02.246Z,5.93
2023-03-24T01:45:22.205Z,6.88
2023-03-24T01:48:45.625Z,6.22
2023-03-24T01:51:47.632Z,5.30
2023-03-24T01:54:53.321Z,7.30
2023-03-24T01:57:55.997Z,8.15
2023-03-24T02:00:53.557Z,6.60
2023-03-24T02:03:52.882Z,6.25
2023-03-24T02:06:50.740Z,7.90
2023-03-24T02:09:48.435Z,7.45
2023-03-24T02:12:46.404Z,10.95
2023-03-24T02:16:02.771Z,7.28
2023-03-24T02:19:39.672Z,5.47
2023-03-24T02:23:21.529Z,5.32
2023-03-24T02:26:52.258Z,6.07
2023-03-24T02:30:40.425Z,4.82
2023-03-24T02:33:54.267Z,6.70
2023-03-24T02:37:09.857Z,7.88
2023-03-24T02:40:15.309Z,7.18
2023-03-24T02:43:45.589Z,6.78
2023-03-24T02:46:54.856Z,7.20
2023-03-24T02:50:15.292Z,5.70
2023-03-24T02:53:50.646Z,6.60
2023-03-24T02:57:04.428Z,5.90
2023-03-24T03:00:28.355Z,5.90
2023-03-24T03:03:38.333Z,6.18
2023-03-24T03:06:40.341Z,5.17
2023-03-24T03:09:47.429Z,4.75
2023-03-24T03:12:50.498Z,6.35
2023-03-24T03:15:53.978Z,5.72
2023-03-24T03:18:58.124Z,4.25
2023-03-24T03:21:56.618Z,4.57
2023-03-24T03:24:57.430Z,3.50
2023-03-24T03:30:59.378Z,7.40
2023-03-24T03:34:44.385Z,4.65
2023-03-24T03:38:08.566Z,6.38
2023-03-24T03:41:06.337Z,4.50
2023-03-24T03:44:03.231Z,4.90
2023-03-24T03:47:00.742Z,5.55
2023-03-24T03:49:57.637Z,5.78
2023-03-24T03:52:54.912Z,4.00
2023-03-24T03:55:52.274Z,4.85
2023-03-24T03:58:50.074Z,7.53
2023-03-24T04:01:48.818Z,4.57
2023-03-24T04:05:35.113Z,4.40
2023-03-24T04:09:01.973Z,5.35
2023-03-24T04:12:32.986Z,4.45
2023-03-24T04:18:51.594Z,6.90
2023-03-24T04:22:09.553Z,5.15
2023-03-24T04:25:42.339Z,5.30
2023-03-24T04:29:08.936Z,5.32
2023-03-24T04:32:25.327Z,6.03
2023-03-24T04:35:34.166Z,6.55
2023-03-24T04:38:33.321Z,5.65
2023-03-24T04:41:31.890Z,6.57
2023-03-24T04:44:33.038Z,4.10
2023-03-24T04:47:38.485Z,4.63
2023-03-24T04:50:43.193Z,5.97
2023-03-24T04:53:40.151Z,4.90
2023-03-24T04:56:47.734Z,4.70
2023-03-24T04:59:44.921Z,5.22
2023-03-24T05:02:41.755Z,4.50
2023-03-24T05:05:38.590Z,5.03
2023-03-24T05:08:35.531Z,3.95
2023-03-24T05:11:32.325Z,5.13
2023-03-24T05:14:29.153Z,4.10
2023-03-24T05:17:25.966Z,3.72
2023-03-24T05:20:23.543Z,4.70
2023-03-24T05:23:20.469Z,5.50
2023-03-24T05:26:17.929Z,3.60
2023-03-24T05:29:14.986Z,3.25
2023-03-24T05:32:13.390Z,3.50
2023-03-24T05:35:10.319Z,3.97
2023-03-24T05:38:07.540Z,5.47
2023-03-24T05:41:05.852Z,3.35
2023-03-24T05:44:02.689Z,5.68
2023-03-24T05:46:59.513Z,4.15
2023-03-24T05:49:56.361Z,4.55
2023-03-24T05:52:53.173Z,5.40
2023-03-24T05:55:50.057Z,4.90
2023-03-24T05:58:47.032Z,10.57
2023-03-24T06:01:43.867Z,5.47
2023-03-24T06:04:46.542Z,12.48
2023-03-24T06:07:43.671Z,16.90
2023-03-24T06:10:41.110Z,13.75
2023-03-24T06:13:38.005Z,5.70
2023-03-24T06:16:40.724Z,16.75
2023-03-24T06:19:38.631Z,6.18
2023-03-24T06:22:36.292Z,4.30
2023-03-24T06:25:35.406Z,5.13
2023-03-24T06:28:34.483Z,7.97
2023-03-24T06:31:32.666Z,4.22
2023-03-24T06:34:29.883Z,5.53
2023-03-24T06:37:27.274Z,4.07
2023-03-24T06:40:24.097Z,10.88
2023-03-24T06:43:21.181Z,2.83
2023-03-24T06:46:18.035Z,4.82
2023-03-24T06:49:15.387Z,6.13
2023-03-24T06:52:12.256Z,5.32
2023-03-24T06:55:09.507Z,5.57
2023-03-24T06:58:06.414Z,6.57
2023-03-24T07:01:03.313Z,6.25
2023-03-24T07:04:00.624Z,7.00
2023-03-24T07:07:19.090Z,4.70
2023-03-24T07:10:15.766Z,7.00
2023-03-24T07:13:12.586Z,5.13
2023-03-24T07:16:09.417Z,4.50
2023-03-24T07:19:06.271Z,8.50
2023-03-24T07:22:03.147Z,9.10
2023-03-24T07:25:04.472Z,10.13
2023-03-24T07:28:01.684Z,5.30
2023-03-24T07:31:02.887Z,9.23
2023-03-24T07:34:01.835Z,9.18
2023-03-24T07:37:01.647Z,4.95
2023-03-24T07:39:59.060Z,4.63
2023-03-24T07:43:00.002Z,10.52
2023-03-24T07:45:57.022Z,6.30
2023-03-24T07:48:53.936Z,6.03
2023-03-24T07:51:51.185Z,9.18
2023-03-24T07:54:48.099Z,10.90
2023-03-24T07:57:49.617Z,7.28
2023-03-24T08:00:46.814Z,7.55
2023-03-24T08:03:44.216Z,4.93
2023-03-24T08:06:44.162Z,4.20
2023-03-24T08:09:41.476Z,5.28
2023-03-24T08:12:38.824Z,3.97
2023-03-24T08:15:35.671Z,3.30
2023-03-24T08:18:34.897Z,3.97
2023-03-24T08:21:31.976Z,4.05
2023-03-24T08:24:28.803Z,3.33
2023-03-24T08:27:25.713Z,4.10
2023-03-24T08:30:28.123Z,2.55
2023-03-24T08:33:25.050Z,3.83
2023-03-24T08:36:26.414Z,2.90
2023-03-24T08:39:24.288Z,3.60
2023-03-24T08:42:21.201Z,4.45
2023-03-24T08:45:21.508Z,3.13
2023-03-24T08:48:18.366Z,4.28
2023-03-24T08:51:17.480Z,2.67
2023-03-24T08:54:14.356Z,3.70
2023-03-24T08:57:11.326Z,4.32
2023-03-24T09:00:15.468Z,2.58
2023-03-24T09:03:22.035Z,4.03
2023-03-24T09:06:19.245Z,2.25
2023-03-24T09:09:16.393Z,3.30
2023-03-24T09:12:13.332Z,2.78
2023-03-24T09:15:13.438Z,4.47
2023-03-24T09:18:10.456Z,4.55
2023-03-24T09:21:08.302Z,3.13
2023-03-24T09:24:05.527Z,3.65
2023-03-24T09:27:02.623Z,4.00
2023-03-24T09:29:59.491Z,3.28
2023-03-24T09:32:58.937Z,3.97
2023-03-24T09:36:01.305Z,4.38
2023-03-24T09:38:58.436Z,3.88
2023-03-24T09:41:56.056Z,3.72
2023-03-24T09:44:57.785Z,6.60
2023-03-24T09:48:12.543Z,3.00
2023-03-24T09:51:42.449Z,3.38
2023-03-24T09:54:49.795Z,5.30
2023-03-24T09:57:49.465Z,5.57
2023-03-24T10:00:46.850Z,3.60
2023-03-24T10:03:46.233Z,5.05
2023-03-24T10:06:44.067Z,6.47
2023-03-24T10:09:41.319Z,4.30
2023-03-24T10:12:45.440Z,4.50
2023-03-24T10:15:55.133Z,5.53
2023-03-24T10:19:28.885Z,4.15
2023-03-24T10:22:44.361Z,4.38
2023-03-24T10:26:26.046Z,8.10
2023-03-24T10:29:32.427Z,3.30
2023-03-24T10:32:33.518Z,4.97
2023-03-24T10:35:36.655Z,3.20
2023-03-24T10:38:33.526Z,7.35
2023-03-24T10:41:33.381Z,4.70
2023-03-24T10:44:30.649Z,4.60
2023-03-24T10:47:32.861Z,3.25
2023-03-24T10:50:35.936Z,3.55
2023-03-24T10:53:34.069Z,2.72
2023-03-24T10:57:01.970Z,5.35
2023-03-24T11:00:18.924Z,4.68
2023-03-24T11:03:23.359Z,4.57
2023-03-24T11:06:22.069Z,5.30
2023-03-24T11:09:21.878Z,6.68
2023-03-24T11:12:31.438Z,6.25
2023-03-24T11:15:37.384Z,7.18
2023-03-24T11:18:34.455Z,7.75
2023-03-24T11:21:37.835Z,6.13
2023-03-24T11:24:38.454Z,6.50
2023-03-24T11:27:43.106Z,5.68
2023-03-24T11:30:52.399Z,7.40
2023-03-24T11:33:56.696Z,4.45
2023-03-24T11:36:59.281Z,1.90
2023-03-24T11:40:12.379Z,4.20
2023-03-24T11:43:21.383Z,2.67
2023-03-24T11:46:20.849Z,1.77
2023-03-24T11:49:22.695Z,3.20
2023-03-24T11:52:36.106Z,1.98
2023-03-24T11:55:53.664Z,2.05
2023-03-24T11:59:22.406Z,0.55
2023-03-24T12:02:25.813Z,0.55
2023-03-24T12:05:39.616Z,0.50
2023-03-24T12:09:08.335Z,1.25
2023-03-24T12:12:59.318Z,1.38
2023-03-24T12:16:11.220Z,1.77
2023-03-24T12:19:35.534Z,1.75
2023-03-24T12:23:03.987Z,1.75
2023-03-24T12:26:39.138Z,1.85
2023-03-24T12:30:01.797Z,1.23
2023-03-24T12:33:38.335Z,1.30
2023-03-24T12:37:01.817Z,1.45
2023-03-24T12:40:38.420Z,1.40
2023-03-24T12:44:01.964Z,2.58
2023-03-24T12:47:26.593Z,1.67
2023-03-24T12:51:16.537Z,1.05
2023-03-24T12:54:27.966Z,1.48
2023-03-24T12:57:28.304Z,2.78
2023-03-24T13:00:33.854Z,1.23
2023-03-24T13:03:50.475Z,1.80
2023-03-24T13:06:59.852Z,1.73
2023-03-24T13:10:27.845Z,1.55
2023-03-24T13:13:32.787Z,1.67
2023-03-24T13:16:34.452Z,1.42
2023-03-24T13:19:33.191Z,2.63
2023-03-24T13:22:31.878Z,1.75
2023-03-24T13:25:52.531Z,1.13
2023-03-24T13:29:03.820Z,1.42
2023-03-24T13:32:23.810Z,2.55
2023-03-24T13:35:45.446Z,2.00
2023-03-24T13:38:49.622Z,1.70
2023-03-24T13:41:51.956Z,1.92
2023-03-24T13:44:49.297Z,3.10
2023-03-24T13:48:10.415Z,0.73
2023-03-24T13:51:19.543Z,0.90
2023-03-24T13:54:23.773Z,2.72
2023-03-24T13:57:23.569Z,1.92
2023-03-24T14:00:25.070Z,0.93
2023-03-24T14:03:38.670Z,0.73
2023-03-24T14:06:56.168Z,2.10
2023-03-24T14:10:20.822Z,2.40
2023-03-24T14:13:17.614Z,1.35
2023-03-24T14:16:30.807Z,3.00
2023-03-24T14:19:50.234Z,1.20
2023-03-24T14:22:51.714Z,1.88
2023-03-24T14:25:55.959Z,1.02
2023-03-24T14:28:55.232Z,1.27
2023-03-24T14:32:17.128Z,0.82
2023-03-24T14:35:24.048Z,2.50
2023-03-24T14:38:27.005Z,1.73
2023-03-24T14:41:31.273Z,1.73
2023-03-24T14:44:52.400Z,1.83
2023-03-24T14:47:59.564Z,1.70
2023-03-24T14:51:08.589Z,2.95
2023-03-24T14:54:36.914Z,3.65
2023-03-24T14:57:42.595Z,4.25
2023-03-24T15:00:57.948Z,0.57
2023-03-24T15:04:08.309Z,1.42
2023-03-24T15:07:06.340Z,2.42
2023-03-24T15:10:03.225Z,2.83
2023-03-24T15:13:00.156Z,3.55
2023-03-24T15:15:57.830Z,3.50
2023-03-24T15:19:02.033Z,3.58
2023-03-24T15:22:13.487Z,1.80
2023-03-24T15:25:12.269Z,1.77
2023-03-24T15:28:24.512Z,2.92
2023-03-24T15:31:25.067Z,2.92
2023-03-24T15:34:40.359Z,1.58
2023-03-24T15:37:43.156Z,3.97
2023-03-24T15:40:41.189Z,2.92
2023-03-24T15:43:53.551Z,3.45
2023-03-24T15:46:50.770Z,3.15
2023-03-24T15:49:58.450Z,2.83
2023-03-24T15:53:14.983Z,2.08
2023-03-24T15:56:19.378Z,3.60
2023-03-24T15:59:16.268Z,3.10
2023-03-24T16:02:39.271Z,3.80
2023-03-24T16:05:36.344Z,6.43
2023-03-24T16:08:38.866Z,2.85
2023-03-24T16:11:35.922Z,4.10
2023-03-24T16:14:33.328Z,2.38
2023-03-24T16:17:30.600Z,4.60
2023-03-24T16:20:27.759Z,2.55
2023-03-24T16:23:26.308Z,2.33
2023-03-24T16:26:30.278Z,3.97
2023-03-24T16:29:27.200Z,3.05
2023-03-24T16:32:24.265Z,1.83
2023-03-24T16:35:21.182Z,3.10
2023-03-24T16:38:18.092Z,1.63
2023-03-24T16:41:15.802Z,2.92
2023-03-24T16:44:13.417Z,3.15
2023-03-24T16:47:11.524Z,3.05
2023-03-24T16:50:30.446Z,3.20
2023-03-24T16:53:27.352Z,2.38
2023-03-24T16:56:34.226Z,9.82
2023-03-24T16:59:31.066Z,6.78
2023-03-24T17:02:27.988Z,3.72
2023-03-24T17:05:29.498Z,3.53
2023-03-24T17:08:26.315Z,7.30
2023-03-24T17:11:30.448Z,2.50
2023-03-24T17:14:27.461Z,2.50
2023-03-24T17:17:24.415Z,2.78
2023-03-24T17:20:23.550Z,4.15
2023-03-24T17:23:21.943Z,5.20
2023-03-24T17:26:18.809Z,3.38
2023-03-24T17:29:15.731Z,3.70
2023-03-24T17:32:12.696Z,3.58
2023-03-24T17:35:16.859Z,4.75
2023-03-24T17:38:16.528Z,2.85
2023-03-24T17:41:13.574Z,4.28
2023-03-24T17:44:10.893Z,5.93
2023-03-24T17:47:08.494Z,4.05
2023-03-24T17:50:09.863Z,2.85
2023-03-24T17:53:07.271Z,12.07
2023-03-24T17:56:05.537Z,5.80
2023-03-24T17:59:03.491Z,5.72
2023-03-24T18:02:00.317Z,4.65
2023-03-24T18:04:58.613Z,5.20
2023-03-24T18:07:55.460Z,4.03
2023-03-24T18:10:52.437Z,4.95
2023-03-24T18:13:49.675Z,3.88
2023-03-24T18:16:46.576Z,7.78
2023-03-24T18:19:43.528Z,5.57
2023-03-24T18:22:41.008Z,4.45
2023-03-24T18:25:38.050Z,3.72
2023-03-24T18:28:37.497Z,3.28
2023-03-24T18:31:34.818Z,4.80
2023-03-24T18:34:32.173Z,5.72
2023-03-24T18:37:29.447Z,6.07
2023-03-24T18:40:26.464Z,3.08
2023-03-24T18:43:24.033Z,5.07
2023-03-24T18:46:22.084Z,6.18
2023-03-24T18:49:18.948Z,6.35
2023-03-24T18:52:18.004Z,8.98
2023-03-24T18:55:15.799Z,9.05
2023-03-24T18:58:15.377Z,8.73
2023-03-24T19:01:18.621Z,8.85
2023-03-24T19:04:16.871Z,7.45
2023-03-24T19:07:14.646Z,8.10
2023-03-24T19:10:12.800Z,4.97
2023-03-24T19:13:12.877Z,4.47
2023-03-24T19:16:11.652Z,6.13
2023-03-24T19:19:09.817Z,6.55
2023-03-24T19:22:08.166Z,4.57
2023-03-24T19:25:05.807Z,6.57
2023-03-24T19:28:02.667Z,5.55
2023-03-24T19:31:06.938Z,6.63
2023-03-24T19:34:04.004Z,4.47
2023-03-24T19:37:00.837Z,6.40
2023-03-24T19:40:01.512Z,11.35
2023-03-24T19:42:58.584Z,8.45
2023-03-24T19:45:56.184Z,9.68
2023-03-24T19:48:53.120Z,7.30
2023-03-24T19:51:51.117Z,7.05
2023-03-24T19:54:47.951Z,7.68
2023-03-24T19:57:44.910Z,7.07
2023-03-24T20:00:42.035Z,6.82
2023-03-24T20:03:40.036Z,9.40
2023-03-24T20:06:37.058Z,7.97
2023-03-24T20:09:34.026Z,7.57
2023-03-24T20:12:32.185Z,8.23
2023-03-24T20:15:29.101Z,6.80
2023-03-24T20:18:26.090Z,6.32
2023-03-24T20:21:23.566Z,12.10
2023-03-24T20:24:23.583Z,12.90
2023-03-24T20:27:20.654Z,9.73
2023-03-24T20:30:18.751Z,7.43
2023-03-24T20:33:15.562Z,7.25
2023-03-24T20:36:12.419Z,6.05
2023-03-24T20:39:09.689Z,7.80
2023-03-24T20:42:06.495Z,6.90
2023-03-24T20:45:04.641Z,8.98
2023-03-24T20:48:02.286Z,7.55
2023-03-24T20:50:59.940Z,6.85
2023-03-24T20:53:56.779Z,4.97
2023-03-24T20:56:53.622Z,5.30
2023-03-24T20:59:51.040Z,8.63
2023-03-24T21:02:47.950Z,5.93
2023-03-24T21:05:44.853Z,11.35
2023-03-24T21:08:44.595Z,8.40
2023-03-24T21:11:41.947Z,11.13
2023-03-24T21:14:38.974Z,7.93
2023-03-24T21:17:35.821Z,10.88
2023-03-24T21:20:32.674Z,9.30
2023-03-24T21:23:32.739Z,6.63
2023-03-24T21:26:30.283Z,8.82
2023-03-24T21:29:27.172Z,6.25
2023-03-24T21:32:24.041Z,7.40
2023-03-24T21:35:21.583Z,9.07
2023-03-24T21:38:18.776Z,7.07
2023-03-24T21:41:17.269Z,6.40
2023-03-24T21:44:14.798Z,8.85
2023-03-24T21:47:12.439Z,5.55
2023-03-24T21:50:11.499Z,7.40
2023-03-24T21:53:14.831Z,7.43
2023-03-24T21:56:11.726Z,7.40
2023-03-24T21:59:09.852Z,5.82
2023-03-24T22:02:14.445Z,7.88
2023-03-24T22:05:13.963Z,7.70
2023-03-24T22:08:12.126Z,7.28
2023-03-24T22:11:09.621Z,10.00
2023-03-24T22:14:06.751Z,5.32
2023-03-24T22:17:05.129Z,6.82
2023-03-24T22:20:05.089Z,5.45
2023-03-24T22:23:03.507Z,6.57
2023-03-24T22:26:03.921Z,4.60
2023-03-24T22:29:02.101Z,4.85
2023-03-24T22:31:59.210Z,5.88
2023-03-24T22:34:56.063Z,4.43
2023-03-24T22:37:52.856Z,3.53
2023-03-24T22:40:50.104Z,3.63
2023-03-24T22:43:46.926Z,4.53
2023-03-24T22:46:43.766Z,6.78
2023-03-24T22:49:41.399Z,9.75
2023-03-24T22:52:38.205Z,10.35
2023-03-24T22:55:36.136Z,9.65
2023-03-24T22:58:32.998Z,6.47
2023-03-24T23:01:29.846Z,2.85
2023-03-24T23:04:26.702Z,4.70
2023-03-24T23:07:23.526Z,5.43
2023-03-24T23:10:20.797Z,3.45
2023-03-24T23:13:17.730Z,4.40
2023-03-24T23:16:14.612Z,9.88
2023-03-24T23:19:12.218Z,3.88
2023-03-24T23:22:09.022Z,2.63
2023-03-24T23:28:03.802Z,6.65
2023-03-24T23:31:00.999Z,8.05
2023-03-24T23:34:00.200Z,16.45
2023-03-24T23:36:57.806Z,12.80
2023-03-24T23:39:54.826Z,10.20
2023-03-24T23:42:51.745Z,12.40
2023-03-24T23:45:48.744Z,10.88
2023-03-24T23:48:45.946Z,12.55
2023-03-24T23:51:43.263Z,13.73
2023-03-24T23:54:40.290Z,10.25
2023-03-24T23:57:42.168Z,8.95
